createdAt,value
2023-04-24T00:02:14.714Z,16.80
2023-04-24T00:04:45.849Z,16.80
2023-04-24T00:07:14.067Z,16.80
2023-04-24T00:09:41.663Z,16.70
2023-04-24T00:12:10.053Z,16.70
2023-04-24T00:14:37.513Z,16.70
2023-04-24T00:17:05.138Z,16.70
2023-04-24T00:19:32.643Z,16.70
2023-04-24T00:22:00.085Z,16.70
2023-04-24T00:24:27.524Z,16.70
2023-04-24T00:26:54.903Z,16.70
2023-04-24T00:29:22.429Z,16.60
2023-04-24T00:31:50.022Z,16.60
2023-04-24T00:34:17.479Z,16.50
2023-04-24T00:36:44.816Z,16.50
2023-04-24T00:39:12.237Z,16.50
2023-04-24T00:41:39.760Z,16.40
2023-04-24T00:44:07.239Z,16.40
2023-04-24T00:46:34.716Z,16.40
2023-04-24T00:49:02.792Z,16.30
2023-04-24T00:51:31.991Z,16.30
2023-04-24T00:53:59.964Z,16.30
2023-04-24T00:56:27.987Z,16.30
2023-04-24T00:58:56.818Z,16.30
2023-04-24T01:01:24.323Z,16.20
2023-04-24T01:03:53.957Z,16.20
2023-04-24T01:06:22.651Z,16.20
2023-04-24T01:08:50.765Z,16.20
2023-04-24T01:11:19.553Z,16.30
2023-04-24T01:13:47.769Z,16.20
2023-04-24T01:16:18.432Z,16.30
2023-04-24T01:18:46.930Z,16.30
2023-04-24T01:21:17.430Z,16.30
2023-04-24T01:23:46.063Z,16.40
2023-04-24T01:26:20.985Z,16.40
2023-04-24T01:28:49.326Z,16.30
2023-04-24T01:31:17.232Z,16.30
2023-04-24T01:33:44.697Z,16.30
2023-04-24T01:36:12.999Z,16.20
2023-04-24T01:38:40.490Z,16.10
2023-04-24T01:41:08.201Z,16.00
2023-04-24T01:43:35.870Z,16.00
2023-04-24T01:46:03.297Z,15.90
2023-04-24T01:48:31.318Z,15.80
2023-04-24T01:50:58.755Z,15.70
2023-04-24T01:53:26.127Z,15.80
2023-04-24T01:55:53.570Z,15.80
2023-04-24T01:58:20.982Z,15.80
2023-04-24T02:00:48.579Z,15.80
2023-04-24T02:03:16.432Z,15.80
2023-04-24T02:05:46.291Z,15.70
2023-04-24T02:08:13.798Z,15.60
2023-04-24T02:10:41.145Z,15.50
2023-04-24T02:13:08.565Z,15.50
2023-04-24T02:15:36.990Z,15.50
2023-04-24T02:18:04.778Z,15.30
2023-04-24T02:20:35.081Z,15.30
2023-04-24T02:23:02.825Z,15.30
2023-04-24T02:25:30.323Z,15.20
2023-04-24T02:27:57.867Z,15.10
2023-04-24T02:30:25.231Z,15.10
2023-04-24T02:32:52.667Z,15.00
2023-04-24T02:35:20.251Z,14.90
2023-04-24T02:37:47.997Z,14.90
2023-04-24T02:40:15.550Z,14.80
2023-04-24T02:42:43.106Z,14.80
2023-04-24T02:45:11.077Z,14.70
2023-04-24T02:47:38.549Z,14.70
2023-04-24T02:50:06.924Z,14.60
2023-04-24T02:52:34.410Z,14.60
2023-04-24T02:55:01.870Z,14.60
2023-04-24T02:57:29.292Z,14.50
2023-04-24T02:59:56.760Z,14.60
2023-04-24T03:02:24.292Z,14.60
2023-04-24T03:04:51.986Z,14.50
2023-04-24T03:07:21.742Z,14.50
2023-04-24T03:09:49.171Z,14.50
2023-04-24T03:12:18.822Z,14.60
2023-04-24T03:14:46.235Z,14.60
2023-04-24T03:17:14.043Z,14.50
2023-04-24T03:19:41.970Z,14.50
2023-04-24T03:22:12.342Z,14.50
2023-04-24T03:24:42.680Z,14.60
2023-04-24T03:27:10.405Z,14.60
2023-04-24T03:29:56.458Z,14.60
2023-04-24T03:32:28.962Z,14.60
2023-04-24T03:34:56.415Z,14.50
2023-04-24T03:37:23.897Z,14.50
2023-04-24T03:40:02.916Z,14.40
2023-04-24T03:42:30.611Z,14.20
2023-04-24T03:44:58.009Z,14.20
2023-04-24T03:47:31.057Z,14.00
2023-04-24T03:50:02.055Z,14.10
2023-04-24T03:52:30.711Z,14.10
2023-04-24T03:54:58.312Z,14.00
2023-04-24T03:57:27.024Z,14.00
2023-04-24T04:00:12.495Z,14.00
2023-04-24T04:02:45.412Z,14.00
2023-04-24T04:05:13.145Z,14.10
2023-04-24T04:07:40.630Z,14.10
2023-04-24T04:10:08.734Z,14.00
2023-04-24T04:12:38.269Z,14.10
2023-04-24T04:15:07.847Z,14.10
2023-04-24T04:17:35.569Z,14.10
2023-04-24T04:20:11.169Z,14.10
2023-04-24T04:22:42.716Z,14.10
2023-04-24T04:25:14.676Z,14.00
2023-04-24T04:27:42.953Z,14.00
2023-04-24T04:30:12.342Z,14.00
2023-04-24T04:32:50.013Z,13.80
2023-04-24T04:35:17.581Z,13.80
2023-04-24T04:37:45.572Z,13.90
2023-04-24T04:40:29.456Z,13.90
2023-04-24T04:43:02.226Z,13.90
2023-04-24T04:45:35.348Z,13.90
2023-04-24T04:48:29.685Z,13.90
2023-04-24T04:50:59.496Z,13.80
2023-04-24T04:53:28.013Z,13.80
2023-04-24T04:55:55.527Z,13.80
2023-04-24T04:58:28.141Z,13.70
2023-04-24T05:00:59.459Z,13.70
2023-04-24T05:03:31.631Z,13.70
2023-04-24T05:06:06.860Z,13.70
2023-04-24T05:08:37.245Z,13.70
2023-04-24T05:11:07.393Z,13.80
2023-04-24T05:13:41.041Z,13.70
2023-04-24T05:16:18.007Z,13.70
2023-04-24T05:18:45.787Z,13.80
2023-04-24T05:21:16.091Z,13.80
2023-04-24T05:23:46.925Z,13.80
2023-04-24T05:26:18.831Z,13.80
2023-04-24T05:28:46.288Z,13.80
2023-04-24T05:31:14.311Z,13.80
2023-04-24T05:33:41.908Z,13.90
2023-04-24T05:36:09.506Z,13.90
2023-04-24T05:38:37.335Z,13.90
2023-04-24T05:41:05.710Z,13.90
2023-04-24T05:43:33.099Z,14.00
2023-04-24T05:46:01.323Z,14.00
2023-04-24T05:48:28.842Z,14.00
2023-04-24T05:50:56.352Z,14.00
2023-04-24T05:53:24.303Z,14.00
2023-04-24T05:55:52.252Z,14.00
2023-04-24T05:58:19.927Z,14.00
2023-04-24T06:00:49.032Z,14.00
2023-04-24T06:03:16.810Z,14.00
2023-04-24T06:05:44.334Z,14.00
2023-04-24T06:08:12.461Z,14.00
2023-04-24T06:10:41.205Z,14.10
2023-04-24T06:13:09.914Z,14.10
2023-04-24T06:15:41.755Z,14.10
2023-04-24T06:18:13.648Z,14.10
2023-04-24T06:20:42.560Z,14.20
2023-04-24T06:23:10.934Z,14.20
2023-04-24T06:25:39.389Z,14.10
2023-04-24T06:28:06.976Z,14.10
2023-04-24T06:30:34.402Z,14.10
2023-04-24T06:33:12.706Z,14.10
2023-04-24T06:35:46.476Z,14.10
2023-04-24T06:38:13.855Z,14.10
2023-04-24T06:40:41.531Z,14.10
2023-04-24T06:43:09.000Z,14.20
2023-04-24T06:45:36.457Z,14.20
2023-04-24T06:48:04.053Z,14.20
2023-04-24T06:50:31.502Z,14.10
2023-04-24T06:52:58.916Z,14.10
2023-04-24T06:55:26.549Z,14.10
2023-04-24T06:57:53.946Z,14.10
2023-04-24T07:00:21.839Z,14.10
2023-04-24T07:02:49.306Z,14.00
2023-04-24T07:05:17.035Z,14.10
2023-04-24T07:07:45.432Z,14.20
2023-04-24T07:10:12.892Z,14.10
2023-04-24T07:12:40.451Z,14.10
2023-04-24T07:15:09.313Z,14.10
2023-04-24T07:17:37.064Z,14.10
2023-04-24T07:20:05.274Z,14.10
2023-04-24T07:22:32.691Z,14.30
2023-04-24T07:25:00.026Z,14.40
2023-04-24T07:27:27.572Z,14.50
2023-04-24T07:29:55.018Z,14.50
2023-04-24T07:32:22.490Z,14.50
2023-04-24T07:34:49.855Z,14.60
2023-04-24T07:37:17.373Z,14.70
2023-04-24T07:39:45.110Z,14.70
2023-04-24T07:42:12.776Z,14.70
2023-04-24T07:44:40.222Z,14.80
2023-04-24T07:47:07.681Z,14.90
2023-04-24T07:49:35.928Z,15.00
2023-04-24T07:52:03.651Z,15.10
2023-04-24T07:54:31.228Z,15.30
2023-04-24T07:56:58.747Z,15.40
2023-04-24T07:59:26.215Z,15.60
2023-04-24T08:01:53.587Z,15.60
2023-04-24T08:04:21.636Z,15.80
2023-04-24T08:06:49.658Z,15.80
2023-04-24T08:09:17.091Z,16.00
2023-04-24T08:11:45.406Z,16.00
2023-04-24T08:14:14.403Z,16.20
2023-04-24T08:16:42.198Z,16.40
2023-04-24T08:19:09.734Z,16.50
2023-04-24T08:21:37.206Z,16.60
2023-04-24T08:24:08.075Z,16.70
2023-04-24T08:26:35.686Z,16.80
2023-04-24T08:29:03.257Z,16.70
2023-04-24T08:31:30.744Z,16.50
2023-04-24T08:33:58.274Z,16.50
2023-04-24T08:36:33.146Z,16.50
2023-04-24T08:39:11.365Z,16.50
2023-04-24T08:41:39.684Z,16.80
2023-04-24T08:44:10.565Z,16.80
2023-04-24T08:46:38.535Z,16.90
2023-04-24T08:49:06.156Z,16.80
2023-04-24T08:51:33.935Z,16.80
2023-04-24T08:54:03.319Z,16.60
2023-04-24T08:56:32.978Z,16.60
2023-04-24T08:59:00.538Z,16.90
2023-04-24T09:01:29.847Z,17.00
2023-04-24T09:03:59.169Z,16.90
2023-04-24T09:06:28.348Z,16.80
2023-04-24T09:08:57.516Z,16.80
2023-04-24T09:11:26.061Z,16.80
2023-04-24T09:13:54.744Z,16.70
2023-04-24T09:16:24.225Z,17.00
2023-04-24T09:18:52.400Z,17.00
2023-04-24T09:21:22.555Z,16.90
2023-04-24T09:24:00.443Z,17.40
2023-04-24T09:26:33.182Z,17.30
2023-04-24T09:29:01.914Z,16.90
2023-04-24T09:31:30.695Z,17.10
2023-04-24T09:34:02.014Z,17.30
2023-04-24T09:36:42.233Z,17.20
2023-04-24T09:39:12.109Z,17.10
2023-04-24T09:41:48.269Z,17.10
2023-04-24T09:44:23.529Z,17.30
2023-04-24T09:47:01.632Z,17.10
2023-04-24T09:49:31.701Z,17.30
2023-04-24T09:52:07.134Z,17.30
2023-04-24T09:54:34.873Z,17.40
2023-04-24T09:57:02.691Z,17.60
2023-04-24T09:59:31.034Z,18.10
2023-04-24T10:01:59.919Z,18.30
2023-04-24T10:04:29.820Z,18.30
2023-04-24T10:06:58.372Z,18.20
2023-04-24T10:09:27.470Z,18.60
2023-04-24T10:11:56.102Z,18.60
2023-04-24T10:14:26.889Z,18.40
2023-04-24T10:16:56.120Z,18.40
2023-04-24T10:19:26.876Z,18.60
2023-04-24T10:21:56.795Z,18.60
2023-04-24T10:24:24.311Z,18.60
2023-04-24T10:26:51.865Z,18.60
2023-04-24T10:29:20.220Z,18.70
2023-04-24T10:31:48.126Z,18.80
2023-04-24T10:34:18.038Z,18.90
2023-04-24T10:36:54.345Z,18.90
2023-04-24T10:39:27.711Z,19.10
2023-04-24T10:41:58.623Z,19.20
2023-04-24T10:44:26.410Z,19.10
2023-04-24T10:46:57.395Z,19.00
2023-04-24T10:49:32.517Z,19.10
2023-04-24T10:52:06.799Z,19.20
2023-04-24T10:54:46.546Z,18.90
2023-04-24T10:57:23.110Z,19.10
2023-04-24T10:59:53.238Z,19.30
2023-04-24T11:02:37.617Z,19.00
2023-04-24T11:05:06.329Z,19.30
2023-04-24T11:08:18.890Z,19.50
2023-04-24T11:10:47.721Z,19.60
2023-04-24T11:13:22.202Z,19.90
2023-04-24T11:16:27.357Z,19.60
2023-04-24T11:19:03.360Z,19.50
2023-04-24T11:21:40.222Z,19.50
2023-04-24T11:24:24.530Z,19.30
2023-04-24T11:26:55.975Z,19.70
2023-04-24T11:29:25.144Z,19.70
2023-04-24T11:31:53.334Z,19.70
2023-04-24T11:34:21.372Z,19.90
2023-04-24T11:36:49.215Z,20.10
2023-04-24T11:39:16.691Z,20.10
2023-04-24T11:41:44.060Z,20.20
2023-04-24T11:44:12.643Z,20.30
2023-04-24T11:46:41.224Z,20.30
2023-04-24T11:49:09.441Z,20.40
2023-04-24T11:51:44.569Z,20.50
2023-04-24T11:54:18.675Z,20.40
2023-04-24T11:56:48.011Z,20.50
2023-04-24T11:59:15.694Z,20.60
2023-04-24T12:01:47.412Z,20.30
2023-04-24T12:04:16.809Z,20.40
2023-04-24T12:07:04.663Z,20.30
2023-04-24T12:09:47.384Z,20.40
2023-04-24T12:12:18.000Z,20.50
2023-04-24T12:14:48.119Z,20.00
2023-04-24T12:17:16.241Z,20.00
2023-04-24T12:19:48.546Z,20.50
2023-04-24T12:22:16.016Z,20.50
2023-04-24T12:25:03.843Z,20.20
2023-04-24T12:27:33.299Z,20.30
2023-04-24T12:30:02.604Z,20.30
2023-04-24T12:32:30.132Z,20.30
2023-04-24T12:34:58.371Z,20.20
2023-04-24T12:37:27.099Z,20.40
2023-04-24T12:40:11.425Z,20.50
2023-04-24T12:42:49.738Z,20.60
2023-04-24T12:45:18.857Z,20.80
2023-04-24T12:47:47.529Z,20.50
2023-04-24T12:50:16.370Z,20.60
2023-04-24T12:52:44.756Z,20.40
2023-04-24T12:55:13.290Z,20.50
2023-04-24T12:57:41.686Z,20.40
2023-04-24T13:00:10.451Z,20.30
2023-04-24T13:02:38.296Z,20.50
2023-04-24T13:05:06.816Z,20.50
2023-04-24T13:07:34.497Z,20.50
2023-04-24T13:10:01.892Z,20.50
2023-04-24T13:12:29.424Z,20.60
2023-04-24T13:14:57.095Z,20.60
2023-04-24T13:17:24.527Z,20.40
2023-04-24T13:19:52.683Z,20.20
2023-04-24T13:22:20.133Z,20.30
2023-04-24T13:24:49.694Z,20.40
2023-04-24T13:27:17.497Z,20.20
2023-04-24T13:29:45.443Z,19.90
2023-04-24T13:32:13.028Z,20.00
2023-04-24T13:34:40.474Z,19.90
2023-04-24T13:37:09.121Z,20.10
2023-04-24T13:39:36.718Z,20.20
2023-04-24T13:42:05.255Z,20.50
2023-04-24T13:44:32.829Z,20.90
2023-04-24T13:47:00.359Z,21.10
2023-04-24T13:49:28.498Z,21.20
2023-04-24T13:51:56.983Z,21.30
2023-04-24T13:54:26.695Z,21.10
2023-04-24T13:56:54.564Z,21.00
2023-04-24T13:59:22.747Z,21.10
2023-04-24T14:01:50.409Z,21.10
2023-04-24T14:04:18.372Z,21.10
2023-04-24T14:06:45.955Z,20.90
2023-04-24T14:09:13.886Z,20.80
2023-04-24T14:11:41.756Z,20.90
2023-04-24T14:14:09.350Z,20.90
2023-04-24T14:16:37.074Z,20.90
2023-04-24T14:19:06.472Z,20.90
2023-04-24T14:21:34.331Z,21.10
2023-04-24T14:24:01.751Z,20.90
2023-04-24T14:26:29.199Z,20.90
2023-04-24T14:29:03.959Z,20.70
2023-04-24T14:31:38.828Z,20.70
2023-04-24T14:34:06.279Z,20.60
2023-04-24T14:36:33.711Z,20.40
2023-04-24T14:39:01.129Z,20.50
2023-04-24T14:41:28.626Z,20.60
2023-04-24T14:43:55.992Z,20.60
2023-04-24T14:46:23.423Z,20.50
2023-04-24T14:48:50.898Z,20.50
2023-04-24T14:51:18.291Z,20.50
2023-04-24T14:53:47.907Z,20.60
2023-04-24T14:56:16.216Z,20.60
2023-04-24T14:58:43.750Z,20.60
2023-04-24T15:01:12.015Z,20.70
2023-04-24T15:03:39.615Z,20.80
2023-04-24T15:06:07.539Z,21.00
2023-04-24T15:08:34.919Z,20.90
2023-04-24T15:11:02.858Z,20.90
2023-04-24T15:13:30.253Z,21.10
2023-04-24T15:15:57.716Z,21.00
2023-04-24T15:18:25.260Z,21.00
2023-04-24T15:20:52.684Z,21.10
2023-04-24T15:23:20.071Z,21.10
2023-04-24T15:25:47.551Z,21.10
2023-04-24T15:28:16.271Z,21.00
2023-04-24T15:30:43.716Z,20.90
2023-04-24T15:33:11.257Z,20.60
2023-04-24T15:35:38.725Z,20.60
2023-04-24T15:38:06.182Z,20.50
2023-04-24T15:40:33.644Z,20.30
2023-04-24T15:43:01.368Z,20.10
2023-04-24T15:45:28.864Z,20.00
2023-04-24T15:47:56.614Z,19.90
2023-04-24T15:50:24.729Z,19.40
2023-04-24T15:52:52.166Z,19.30
2023-04-24T15:55:19.686Z,19.20
2023-04-24T15:57:47.293Z,19.10
2023-04-24T16:00:15.422Z,19.20
2023-04-24T16:02:42.962Z,19.40
2023-04-24T16:05:11.181Z,19.60
2023-04-24T16:07:39.430Z,20.10
2023-04-24T16:10:07.330Z,20.50
2023-04-24T16:12:34.850Z,20.60
2023-04-24T16:15:02.922Z,20.60
2023-04-24T16:17:30.589Z,20.60
2023-04-24T16:19:58.055Z,20.60
2023-04-24T16:22:25.506Z,20.50
2023-04-24T16:24:52.889Z,20.40
2023-04-24T16:27:20.298Z,20.40
2023-04-24T16:29:47.642Z,20.60
2023-04-24T16:32:15.034Z,20.70
2023-04-24T16:34:42.413Z,20.70
2023-04-24T16:37:09.821Z,20.70
2023-04-24T16:39:38.743Z,20.90
2023-04-24T16:42:06.814Z,20.90
2023-04-24T16:44:34.295Z,21.00
2023-04-24T16:47:01.844Z,21.00
2023-04-24T16:49:31.130Z,21.00
2023-04-24T16:51:59.378Z,21.00
2023-04-24T16:54:26.830Z,21.10
2023-04-24T16:56:54.822Z,20.80
2023-04-24T16:59:23.431Z,20.80
2023-04-24T17:01:50.780Z,20.40
2023-04-24T17:04:18.321Z,19.70
2023-04-24T17:06:46.643Z,19.20
2023-04-24T17:09:15.774Z,19.00
2023-04-24T17:11:43.544Z,19.00
2023-04-24T17:14:11.095Z,19.00
2023-04-24T17:16:38.727Z,19.00
2023-04-24T17:19:07.247Z,19.00
2023-04-24T17:21:34.606Z,18.90
2023-04-24T17:24:02.074Z,18.60
2023-04-24T17:26:32.227Z,18.60
2023-04-24T17:28:59.665Z,18.40
2023-04-24T17:31:27.113Z,18.20
2023-04-24T17:33:54.490Z,18.00
2023-04-24T17:36:21.954Z,18.00
2023-04-24T17:38:49.816Z,17.90
2023-04-24T17:41:17.389Z,17.90
2023-04-24T17:43:45.793Z,17.80
2023-04-24T17:46:13.616Z,17.60
2023-04-24T17:48:41.049Z,17.60
2023-04-24T17:51:08.378Z,17.50
2023-04-24T17:53:35.891Z,17.50
2023-04-24T17:56:03.989Z,17.40
2023-04-24T17:58:31.686Z,17.30
2023-04-24T18:00:59.354Z,17.20
2023-04-24T18:03:26.988Z,17.20
2023-04-24T18:05:54.471Z,17.10
2023-04-24T18:08:21.941Z,17.00
2023-04-24T18:10:49.663Z,17.00
2023-04-24T18:13:17.171Z,16.90
2023-04-24T18:15:44.607Z,16.80
2023-04-24T18:18:12.501Z,16.80
2023-04-24T18:20:39.913Z,16.70
2023-04-24T18:23:07.268Z,16.80
2023-04-24T18:25:34.875Z,16.70
2023-04-24T18:28:02.303Z,16.60
2023-04-24T18:30:31.213Z,16.60
2023-04-24T18:32:58.928Z,16.60
2023-04-24T18:35:26.696Z,16.50
2023-04-24T18:37:54.139Z,16.50
2023-04-24T18:40:21.628Z,16.40
2023-04-24T18:42:49.200Z,16.40
2023-04-24T18:45:16.757Z,16.30
2023-04-24T18:47:44.439Z,16.30
2023-04-24T18:50:12.709Z,16.20
2023-04-24T18:52:40.470Z,16.20
2023-04-24T18:55:09.760Z,16.10
2023-04-24T18:57:37.210Z,16.00
2023-04-24T19:00:05.528Z,16.00
2023-04-24T19:02:34.710Z,15.90
2023-04-24T19:05:03.309Z,15.80
2023-04-24T19:07:30.713Z,15.80
2023-04-24T19:09:58.059Z,15.70
2023-04-24T19:12:25.468Z,15.60
2023-04-24T19:14:55.913Z,15.60
2023-04-24T19:17:25.190Z,15.40
2023-04-24T19:19:52.582Z,15.30
2023-04-24T19:22:23.057Z,15.20
2023-04-24T19:24:50.563Z,15.10
2023-04-24T19:27:17.968Z,15.10
2023-04-24T19:29:46.079Z,15.00
2023-04-24T19:32:13.539Z,15.00
2023-04-24T19:34:41.092Z,15.00
2023-04-24T19:37:08.545Z,15.00
2023-04-24T19:39:35.984Z,14.90
2023-04-24T19:42:07.322Z,15.00
2023-04-24T19:44:35.105Z,14.90
2023-04-24T19:47:02.623Z,14.90
2023-04-24T19:49:30.913Z,14.80
2023-04-24T19:51:58.288Z,14.80
2023-04-24T19:54:26.154Z,14.80
2023-04-24T19:56:53.502Z,14.70
2023-04-24T19:59:21.041Z,14.80
2023-04-24T20:01:48.653Z,14.70
2023-04-24T20:04:16.287Z,14.70
2023-04-24T20:06:43.806Z,14.70
2023-04-24T20:09:11.239Z,14.70
2023-04-24T20:11:38.660Z,14.70
2023-04-24T20:14:06.308Z,14.70
2023-04-24T20:16:33.758Z,14.70
2023-04-24T20:19:01.226Z,14.70
2023-04-24T20:21:28.886Z,14.70
2023-04-24T20:23:56.287Z,14.70
2023-04-24T20:26:23.764Z,14.70
2023-04-24T20:28:51.476Z,14.70
2023-04-24T20:31:19.853Z,14.70
2023-04-24T20:33:47.382Z,14.60
2023-04-24T20:36:14.755Z,14.60
2023-04-24T20:38:42.129Z,14.70
2023-04-24T20:41:10.385Z,14.60
2023-04-24T20:43:37.902Z,14.60
2023-04-24T20:46:05.779Z,14.50
2023-04-24T20:48:33.390Z,14.50
2023-04-24T20:51:01.996Z,14.40
2023-04-24T20:53:29.605Z,14.30
2023-04-24T20:55:57.067Z,14.30
2023-04-24T20:58:24.716Z,14.30
2023-04-24T21:00:52.534Z,14.20
2023-04-24T21:03:20.234Z,14.20
2023-04-24T21:05:47.777Z,14.20
2023-04-24T21:08:15.272Z,14.20
2023-04-24T21:10:42.692Z,14.20
2023-04-24T21:13:10.171Z,14.00
2023-04-24T21:15:37.599Z,14.10
2023-04-24T21:18:05.163Z,14.00
2023-04-24T21:20:32.582Z,14.00
2023-04-24T21:23:00.039Z,14.00
2023-04-24T21:25:28.059Z,14.00
2023-04-24T21:27:56.264Z,14.00
2023-04-24T21:30:23.777Z,13.90
2023-04-24T21:32:52.242Z,13.90
2023-04-24T21:35:19.805Z,13.90
2023-04-24T21:37:47.190Z,13.90
2023-04-24T21:40:15.978Z,13.90
2023-04-24T21:42:43.612Z,13.80
2023-04-24T21:45:11.444Z,13.80
2023-04-24T21:47:38.915Z,13.80
2023-04-24T21:50:06.980Z,13.80
2023-04-24T21:52:34.360Z,13.80
2023-04-24T21:55:01.727Z,13.70
2023-04-24T21:57:29.801Z,13.70
2023-04-24T21:59:57.210Z,13.60
2023-04-24T22:02:24.721Z,13.50
2023-04-24T22:04:52.904Z,13.50
2023-04-24T22:07:20.552Z,13.50
2023-04-24T22:09:47.976Z,13.50
2023-04-24T22:12:15.478Z,13.40
2023-04-24T22:14:43.881Z,13.20
2023-04-24T22:17:11.397Z,13.20
2023-04-24T22:19:40.420Z,13.10
2023-04-24T22:22:08.061Z,13.00
2023-04-24T22:24:36.528Z,12.90
2023-04-24T22:27:04.024Z,12.90
2023-04-24T22:29:31.473Z,13.00
2023-04-24T22:31:59.001Z,13.10
2023-04-24T22:34:26.896Z,13.00
2023-04-24T22:36:54.311Z,12.90
2023-04-24T22:39:21.708Z,12.80
2023-04-24T22:41:49.159Z,12.90
2023-04-24T22:44:16.800Z,12.80
2023-04-24T22:46:45.263Z,12.70
2023-04-24T22:49:12.662Z,12.70
2023-04-24T22:51:41.746Z,12.90
2023-04-24T22:54:09.136Z,12.80
2023-04-24T22:56:37.752Z,12.90
2023-04-24T23:01:33.961Z,12.90
2023-04-24T23:04:01.482Z,13.00
2023-04-24T23:06:29.006Z,13.00
2023-04-24T23:08:56.334Z,13.00
2023-04-24T23:11:23.722Z,13.10
2023-04-24T23:13:51.410Z,13.10
2023-04-24T23:16:18.930Z,13.20
2023-04-24T23:18:46.826Z,13.20
2023-04-24T23:21:14.261Z,13.20
2023-04-24T23:23:41.795Z,13.30
2023-04-24T23:26:09.184Z,13.30
2023-04-24T23:28:37.599Z,13.30
2023-04-24T23:31:05.017Z,13.30
2023-04-24T23:33:32.417Z,13.30
2023-04-24T23:35:59.859Z,13.30
2023-04-24T23:38:30.163Z,13.30
2023-04-24T23:41:01.839Z,13.40
2023-04-24T23:43:29.258Z,13.40
2023-04-24T23:45:56.737Z,13.50
2023-04-24T23:48:24.258Z,13.50
2023-04-24T23:50:51.754Z,13.50
2023-04-24T23:53:19.161Z,13.50
2023-04-24T23:55:46.654Z,13.50
2023-04-24T23:58:14.057Z,13.50
